sensor_id;sensor_type;location;lat;lon;timestamp;temperature;humidity
20672;DHT22;10495;50.922;4.760;2023-03-04T00:01:32;6.70;69.30
20672;DHT22;10495;50.922;4.760;2023-03-04T00:03:57;6.70;69.90
20672;DHT22;10495;50.922;4.760;2023-03-04T00:06:23;6.70;69.20
20672;DHT22;10495;50.922;4.760;2023-03-04T00:08:48;6.90;69.10
20672;DHT22;10495;50.922;4.760;2023-03-04T00:11:14;6.80;69.20
20672;DHT22;10495;50.922;4.760;2023-03-04T00:13:40;6.90;68.80
20672;DHT22;10495;50.922;4.760;2023-03-04T00:16:05;6.90;68.70
20672;DHT22;10495;50.922;4.760;2023-03-04T00:18:31;6.90;68.70
20672;DHT22;10495;50.922;4.760;2023-03-04T00:20:57;7.10;67.90
20672;DHT22;10495;50.922;4.760;2023-03-04T00:23:22;6.90;68.00
20672;DHT22;10495;50.922;4.760;2023-03-04T00:25:48;6.80;68.40
20672;DHT22;10495;50.922;4.760;2023-03-04T00:28:13;6.90;68.20
20672;DHT22;10495;50.922;4.760;2023-03-04T00:30:39;6.90;68.50
20672;DHT22;10495;50.922;4.760;2023-03-04T00:33:05;6.70;68.60
20672;DHT22;10495;50.922;4.760;2023-03-04T00:35:30;6.80;68.50
20672;DHT22;10495;50.922;4.760;2023-03-04T00:37:56;6.90;68.60
20672;DHT22;10495;50.922;4.760;2023-03-04T00:40:21;6.80;68.60
20672;DHT22;10495;50.922;4.760;2023-03-04T00:42:47;6.70;69.20
20672;DHT22;10495;50.922;4.760;2023-03-04T00:45:13;6.70;69.60
20672;DHT22;10495;50.922;4.760;2023-03-04T00:47:38;6.80;69.20
20672;DHT22;10495;50.922;4.760;2023-03-04T00:50:04;6.80;69.40
20672;DHT22;10495;50.922;4.760;2023-03-04T00:52:30;6.90;69.30
20672;DHT22;10495;50.922;4.760;2023-03-04T00:54:55;6.80;69.20
20672;DHT22;10495;50.922;4.760;2023-03-04T00:57:21;6.70;69.50
20672;DHT22;10495;50.922;4.760;2023-03-04T00:59:47;6.70;69.70
20672;DHT22;10495;50.922;4.760;2023-03-04T01:02:12;6.80;69.60
20672;DHT22;10495;50.922;4.760;2023-03-04T01:04:38;6.80;69.50
20672;DHT22;10495;50.922;4.760;2023-03-04T01:07:04;6.90;69.60
20672;DHT22;10495;50.922;4.760;2023-03-04T01:09:30;6.80;69.30
20672;DHT22;10495;50.922;4.760;2023-03-04T01:11:56;6.70;69.60
20672;DHT22;10495;50.922;4.760;2023-03-04T01:14:22;6.70;70.00
20672;DHT22;10495;50.922;4.760;2023-03-04T01:16:48;6.80;70.50
20672;DHT22;10495;50.922;4.760;2023-03-04T01:19:14;6.80;69.60
20672;DHT22;10495;50.922;4.760;2023-03-04T01:21:39;6.90;69.70
20672;DHT22;10495;50.922;4.760;2023-03-04T01:24:05;6.90;69.50
20672;DHT22;10495;50.922;4.760;2023-03-04T01:26:31;6.80;69.30
20672;DHT22;10495;50.922;4.760;2023-03-04T01:28:56;7.00;69.10
20672;DHT22;10495;50.922;4.760;2023-03-04T01:31:22;7.20;68.50
20672;DHT22;10495;50.922;4.760;2023-03-04T01:33:48;6.90;68.80
20672;DHT22;10495;50.922;4.760;2023-03-04T01:36:13;6.80;69.50
20672;DHT22;10495;50.922;4.760;2023-03-04T01:38:39;6.60;69.90
20672;DHT22;10495;50.922;4.760;2023-03-04T01:41:05;6.70;70.00
20672;DHT22;10495;50.922;4.760;2023-03-04T01:43:34;6.80;69.90
20672;DHT22;10495;50.922;4.760;2023-03-04T01:46:01;6.80;69.80
20672;DHT22;10495;50.922;4.760;2023-03-04T01:48:31;6.90;69.90
20672;DHT22;10495;50.922;4.760;2023-03-04T01:50:58;6.90;69.80
20672;DHT22;10495;50.922;4.760;2023-03-04T01:53:28;7.00;69.90
20672;DHT22;10495;50.922;4.760;2023-03-04T01:56:42;6.90;69.90
20672;DHT22;10495;50.922;4.760;2023-03-04T01:58:42;7.00;70.00
20672;DHT22;10495;50.922;4.760;2023-03-04T02:01:11;7.10;70.00
20672;DHT22;10495;50.922;4.760;2023-03-04T02:03:37;7.00;70.20
20672;DHT22;10495;50.922;4.760;2023-03-04T02:06:02;7.10;70.10
20672;DHT22;10495;50.922;4.760;2023-03-04T02:08:28;7.10;70.00
20672;DHT22;10495;50.922;4.760;2023-03-04T02:10:54;7.10;70.00
20672;DHT22;10495;50.922;4.760;2023-03-04T02:13:20;7.10;70.20
20672;DHT22;10495;50.922;4.760;2023-03-04T02:15:46;7.00;69.60
20672;DHT22;10495;50.922;4.760;2023-03-04T02:18:22;6.90;70.10
20672;DHT22;10495;50.922;4.760;2023-03-04T02:26:21;6.90;70.40
20672;DHT22;10495;50.922;4.760;2023-03-04T02:28:49;6.80;70.50
20672;DHT22;10495;50.922;4.760;2023-03-04T02:31:25;6.90;70.50
20672;DHT22;10495;50.922;4.760;2023-03-04T02:33:53;7.00;70.40
20672;DHT22;10495;50.922;4.760;2023-03-04T02:36:20;6.90;70.60
20672;DHT22;10495;50.922;4.760;2023-03-04T02:38:46;7.00;70.60
20672;DHT22;10495;50.922;4.760;2023-03-04T02:41:13;7.00;70.60
20672;DHT22;10495;50.922;4.760;2023-03-04T02:43:39;7.00;70.60
20672;DHT22;10495;50.922;4.760;2023-03-04T02:46:05;7.00;70.60
20672;DHT22;10495;50.922;4.760;2023-03-04T02:48:31;7.00;70.60
20672;DHT22;10495;50.922;4.760;2023-03-04T02:50:56;7.00;70.60
20672;DHT22;10495;50.922;4.760;2023-03-04T02:53:22;6.90;70.60
20672;DHT22;10495;50.922;4.760;2023-03-04T02:55:49;7.00;70.60
20672;DHT22;10495;50.922;4.760;2023-03-04T02:58:15;7.10;69.90
20672;DHT22;10495;50.922;4.760;2023-03-04T03:00:41;7.00;70.00
20672;DHT22;10495;50.922;4.760;2023-03-04T03:03:07;7.00;70.30
20672;DHT22;10495;50.922;4.760;2023-03-04T03:05:33;6.80;70.60
20672;DHT22;10495;50.922;4.760;2023-03-04T03:07:59;6.90;70.80
20672;DHT22;10495;50.922;4.760;2023-03-04T03:10:26;6.90;70.90
20672;DHT22;10495;50.922;4.760;2023-03-04T03:12:52;6.90;71.20
20672;DHT22;10495;50.922;4.760;2023-03-04T03:15:17;6.90;71.10
20672;DHT22;10495;50.922;4.760;2023-03-04T03:17:44;6.90;71.20
20672;DHT22;10495;50.922;4.760;2023-03-04T03:20:10;6.90;71.10
20672;DHT22;10495;50.922;4.760;2023-03-04T03:22:37;6.90;71.20
20672;DHT22;10495;50.922;4.760;2023-03-04T03:25:03;6.90;71.20
20672;DHT22;10495;50.922;4.760;2023-03-04T03:27:29;7.00;71.10
20672;DHT22;10495;50.922;4.760;2023-03-04T03:29:55;7.00;71.00
20672;DHT22;10495;50.922;4.760;2023-03-04T03:32:20;7.00;71.30
20672;DHT22;10495;50.922;4.760;2023-03-04T03:34:46;7.00;70.90
20672;DHT22;10495;50.922;4.760;2023-03-04T03:37:12;7.00;71.20
20672;DHT22;10495;50.922;4.760;2023-03-04T03:39:38;7.00;71.40
20672;DHT22;10495;50.922;4.760;2023-03-04T03:42:03;7.20;70.80
20672;DHT22;10495;50.922;4.760;2023-03-04T03:44:29;7.10;70.50
20672;DHT22;10495;50.922;4.760;2023-03-04T03:46:55;6.80;71.30
20672;DHT22;10495;50.922;4.760;2023-03-04T03:49:20;6.80;71.70
20672;DHT22;10495;50.922;4.760;2023-03-04T03:51:46;6.90;71.80
20672;DHT22;10495;50.922;4.760;2023-03-04T03:54:11;6.80;71.80
20672;DHT22;10495;50.922;4.760;2023-03-04T03:56:37;6.80;72.00
20672;DHT22;10495;50.922;4.760;2023-03-04T03:59:03;6.70;72.30
20672;DHT22;10495;50.922;4.760;2023-03-04T04:01:28;6.70;72.40
20672;DHT22;10495;50.922;4.760;2023-03-04T04:03:54;6.60;72.40
20672;DHT22;10495;50.922;4.760;2023-03-04T04:06:19;6.60;72.50
20672;DHT22;10495;50.922;4.760;2023-03-04T04:08:45;6.60;72.60
20672;DHT22;10495;50.922;4.760;2023-03-04T04:11:12;6.70;72.20
20672;DHT22;10495;50.922;4.760;2023-03-04T04:13:37;6.70;72.10
20672;DHT22;10495;50.922;4.760;2023-03-04T04:16:04;6.70;72.40
20672;DHT22;10495;50.922;4.760;2023-03-04T04:18:29;6.80;72.30
20672;DHT22;10495;50.922;4.760;2023-03-04T04:20:55;6.80;72.20
20672;DHT22;10495;50.922;4.760;2023-03-04T04:23:21;6.70;72.20
20672;DHT22;10495;50.922;4.760;2023-03-04T04:25:47;6.80;72.20
20672;DHT22;10495;50.922;4.760;2023-03-04T04:28:12;6.80;72.10
20672;DHT22;10495;50.922;4.760;2023-03-04T04:30:38;6.80;72.00
20672;DHT22;10495;50.922;4.760;2023-03-04T04:33:04;6.90;72.10
20672;DHT22;10495;50.922;4.760;2023-03-04T04:35:31;6.90;72.00
20672;DHT22;10495;50.922;4.760;2023-03-04T04:37:58;6.90;72.40
20672;DHT22;10495;50.922;4.760;2023-03-04T04:40:23;6.80;72.50
20672;DHT22;10495;50.922;4.760;2023-03-04T04:42:49;6.80;72.60
20672;DHT22;10495;50.922;4.760;2023-03-04T04:45:14;6.90;72.50
20672;DHT22;10495;50.922;4.760;2023-03-04T04:47:40;6.90;72.60
20672;DHT22;10495;50.922;4.760;2023-03-04T04:50:06;6.80;72.50
20672;DHT22;10495;50.922;4.760;2023-03-04T04:52:32;6.60;73.10
20672;DHT22;10495;50.922;4.760;2023-03-04T04:54:58;6.60;73.30
20672;DHT22;10495;50.922;4.760;2023-03-04T04:57:23;6.50;73.40
20672;DHT22;10495;50.922;4.760;2023-03-04T04:59:49;6.60;73.50
20672;DHT22;10495;50.922;4.760;2023-03-04T05:02:15;6.80;72.80
20672;DHT22;10495;50.922;4.760;2023-03-04T05:04:40;6.70;72.90
20672;DHT22;10495;50.922;4.760;2023-03-04T05:07:06;6.70;73.10
20672;DHT22;10495;50.922;4.760;2023-03-04T05:09:32;6.60;72.80
20672;DHT22;10495;50.922;4.760;2023-03-04T05:11:57;6.70;73.10
20672;DHT22;10495;50.922;4.760;2023-03-04T05:14:23;6.70;72.70
20672;DHT22;10495;50.922;4.760;2023-03-04T05:16:49;6.60;73.20
20672;DHT22;10495;50.922;4.760;2023-03-04T05:19:15;6.50;73.80
20672;DHT22;10495;50.922;4.760;2023-03-04T05:21:41;6.60;73.50
20672;DHT22;10495;50.922;4.760;2023-03-04T05:24:07;6.70;73.20
20672;DHT22;10495;50.922;4.760;2023-03-04T05:26:32;6.70;73.30
20672;DHT22;10495;50.922;4.760;2023-03-04T05:28:58;6.80;73.00
20672;DHT22;10495;50.922;4.760;2023-03-04T05:31:24;6.90;72.90
20672;DHT22;10495;50.922;4.760;2023-03-04T05:33:49;7.00;72.60
20672;DHT22;10495;50.922;4.760;2023-03-04T05:36:15;6.80;72.60
20672;DHT22;10495;50.922;4.760;2023-03-04T05:38:41;6.80;72.70
20672;DHT22;10495;50.922;4.760;2023-03-04T05:41:06;6.90;73.00
20672;DHT22;10495;50.922;4.760;2023-03-04T05:43:33;6.80;72.80
20672;DHT22;10495;50.922;4.760;2023-03-04T05:46:01;6.90;72.70
20672;DHT22;10495;50.922;4.760;2023-03-04T05:48:26;6.90;72.60
20672;DHT22;10495;50.922;4.760;2023-03-04T05:50:58;6.90;72.90
20672;DHT22;10495;50.922;4.760;2023-03-04T05:53:24;6.80;73.00
20672;DHT22;10495;50.922;4.760;2023-03-04T05:55:50;6.90;73.10
20672;DHT22;10495;50.922;4.760;2023-03-04T05:58:16;6.90;72.90
20672;DHT22;10495;50.922;4.760;2023-03-04T06:00:42;6.90;73.00
20672;DHT22;10495;50.922;4.760;2023-03-04T06:03:16;6.90;73.10
20672;DHT22;10495;50.922;4.760;2023-03-04T06:05:41;6.90;73.20
20672;DHT22;10495;50.922;4.760;2023-03-04T06:08:07;6.80;73.10
20672;DHT22;10495;50.922;4.760;2023-03-04T06:10:33;6.80;73.30
20672;DHT22;10495;50.922;4.760;2023-03-04T06:12:58;6.80;73.30
20672;DHT22;10495;50.922;4.760;2023-03-04T06:15:24;6.90;73.50
20672;DHT22;10495;50.922;4.760;2023-03-04T06:17:49;6.90;73.40
20672;DHT22;10495;50.922;4.760;2023-03-04T06:20:15;7.00;73.10
20672;DHT22;10495;50.922;4.760;2023-03-04T06:22:41;7.00;72.90
20672;DHT22;10495;50.922;4.760;2023-03-04T06:25:06;7.00;73.40
20672;DHT22;10495;50.922;4.760;2023-03-04T06:27:32;7.00;72.90
20672;DHT22;10495;50.922;4.760;2023-03-04T06:29:58;7.10;72.80
20672;DHT22;10495;50.922;4.760;2023-03-04T06:32:24;7.20;72.80
20672;DHT22;10495;50.922;4.760;2023-03-04T06:34:49;7.10;72.80
20672;DHT22;10495;50.922;4.760;2023-03-04T06:37:15;7.00;73.00
20672;DHT22;10495;50.922;4.760;2023-03-04T06:39:40;7.00;73.10
20672;DHT22;10495;50.922;4.760;2023-03-04T06:42:06;7.00;73.10
20672;DHT22;10495;50.922;4.760;2023-03-04T06:44:32;7.00;73.40
20672;DHT22;10495;50.922;4.760;2023-03-04T06:46:57;7.00;73.30
20672;DHT22;10495;50.922;4.760;2023-03-04T06:49:23;7.10;73.40
20672;DHT22;10495;50.922;4.760;2023-03-04T06:51:49;7.00;73.40
20672;DHT22;10495;50.922;4.760;2023-03-04T06:54:14;7.00;73.60
20672;DHT22;10495;50.922;4.760;2023-03-04T06:56:40;7.00;73.60
20672;DHT22;10495;50.922;4.760;2023-03-04T06:59:05;7.10;73.50
20672;DHT22;10495;50.922;4.760;2023-03-04T07:01:31;7.10;73.60
20672;DHT22;10495;50.922;4.760;2023-03-04T07:03:57;7.10;73.60
20672;DHT22;10495;50.922;4.760;2023-03-04T07:06:25;7.10;73.50
20672;DHT22;10495;50.922;4.760;2023-03-04T07:08:51;7.00;73.60
20672;DHT22;10495;50.922;4.760;2023-03-04T07:11:17;7.10;73.50
20672;DHT22;10495;50.922;4.760;2023-03-04T07:13:43;7.10;73.70
20672;DHT22;10495;50.922;4.760;2023-03-04T07:16:11;7.10;73.50
20672;DHT22;10495;50.922;4.760;2023-03-04T07:18:37;7.10;73.70
20672;DHT22;10495;50.922;4.760;2023-03-04T07:21:03;7.10;73.80
20672;DHT22;10495;50.922;4.760;2023-03-04T07:23:29;7.10;74.20
20672;DHT22;10495;50.922;4.760;2023-03-04T07:25:55;7.20;73.40
20672;DHT22;10495;50.922;4.760;2023-03-04T07:28:21;7.10;73.40
20672;DHT22;10495;50.922;4.760;2023-03-04T07:30:47;7.10;73.60
20672;DHT22;10495;50.922;4.760;2023-03-04T07:33:13;7.20;73.70
20672;DHT22;10495;50.922;4.760;2023-03-04T07:35:39;7.20;73.60
20672;DHT22;10495;50.922;4.760;2023-03-04T07:38:05;7.20;73.70
20672;DHT22;10495;50.922;4.760;2023-03-04T07:40:30;7.30;73.60
20672;DHT22;10495;50.922;4.760;2023-03-04T07:42:56;7.20;73.60
20672;DHT22;10495;50.922;4.760;2023-03-04T07:45:23;7.20;74.00
20672;DHT22;10495;50.922;4.760;2023-03-04T07:47:49;7.30;73.80
20672;DHT22;10495;50.922;4.760;2023-03-04T07:50:15;7.20;73.70
20672;DHT22;10495;50.922;4.760;2023-03-04T07:52:43;7.10;74.00
20672;DHT22;10495;50.922;4.760;2023-03-04T07:55:11;7.10;74.30
20672;DHT22;10495;50.922;4.760;2023-03-04T07:57:38;7.10;74.70
20672;DHT22;10495;50.922;4.760;2023-03-04T08:00:05;7.10;75.00
20672;DHT22;10495;50.922;4.760;2023-03-04T08:02:30;7.10;74.50
20672;DHT22;10495;50.922;4.760;2023-03-04T08:04:56;7.20;74.80
20672;DHT22;10495;50.922;4.760;2023-03-04T08:07:22;7.20;74.80
20672;DHT22;10495;50.922;4.760;2023-03-04T08:09:48;7.30;74.20
20672;DHT22;10495;50.922;4.760;2023-03-04T08:12:13;7.50;74.50
20672;DHT22;10495;50.922;4.760;2023-03-04T08:14:39;7.60;74.30
20672;DHT22;10495;50.922;4.760;2023-03-04T08:17:05;7.60;74.00
20672;DHT22;10495;50.922;4.760;2023-03-04T08:19:30;7.50;74.10
20672;DHT22;10495;50.922;4.760;2023-03-04T08:21:56;7.40;74.10
20672;DHT22;10495;50.922;4.760;2023-03-04T08:24:22;7.20;75.30
20672;DHT22;10495;50.922;4.760;2023-03-04T08:26:49;7.10;75.70
20672;DHT22;10495;50.922;4.760;2023-03-04T08:29:18;7.10;75.50
20672;DHT22;10495;50.922;4.760;2023-03-04T08:31:46;6.90;76.00
20672;DHT22;10495;50.922;4.760;2023-03-04T08:34:12;7.10;75.60
20672;DHT22;10495;50.922;4.760;2023-03-04T08:36:42;7.20;75.40
20672;DHT22;10495;50.922;4.760;2023-03-04T08:39:08;7.10;74.90
20672;DHT22;10495;50.922;4.760;2023-03-04T08:41:34;7.30;75.00
20672;DHT22;10495;50.922;4.760;2023-03-04T08:44:00;7.30;75.00
20672;DHT22;10495;50.922;4.760;2023-03-04T08:46:26;7.30;74.20
20672;DHT22;10495;50.922;4.760;2023-03-04T08:48:52;7.20;74.50
20672;DHT22;10495;50.922;4.760;2023-03-04T08:51:18;7.10;74.50
20672;DHT22;10495;50.922;4.760;2023-03-04T08:53:44;7.10;74.30
20672;DHT22;10495;50.922;4.760;2023-03-04T08:56:10;7.00;74.60
20672;DHT22;10495;50.922;4.760;2023-03-04T08:58:36;7.00;74.70
20672;DHT22;10495;50.922;4.760;2023-03-04T09:01:03;7.10;74.60
20672;DHT22;10495;50.922;4.760;2023-03-04T09:03:29;7.20;75.40
20672;DHT22;10495;50.922;4.760;2023-03-04T09:05:55;7.30;75.10
20672;DHT22;10495;50.922;4.760;2023-03-04T09:08:20;7.50;74.90
20672;DHT22;10495;50.922;4.760;2023-03-04T09:10:46;7.50;75.00
20672;DHT22;10495;50.922;4.760;2023-03-04T09:13:12;7.50;75.30
20672;DHT22;10495;50.922;4.760;2023-03-04T09:15:45;7.60;75.10
20672;DHT22;10495;50.922;4.760;2023-03-04T09:18:11;7.90;75.50
20672;DHT22;10495;50.922;4.760;2023-03-04T09:20:37;8.20;75.70
20672;DHT22;10495;50.922;4.760;2023-03-04T09:23:03;8.40;75.00
20672;DHT22;10495;50.922;4.760;2023-03-04T09:25:29;8.60;75.20
20672;DHT22;10495;50.922;4.760;2023-03-04T09:27:54;8.70;74.00
20672;DHT22;10495;50.922;4.760;2023-03-04T09:30:20;8.80;75.30
20672;DHT22;10495;50.922;4.760;2023-03-04T09:32:46;9.00;73.80
20672;DHT22;10495;50.922;4.760;2023-03-04T09:35:11;9.20;73.30
20672;DHT22;10495;50.922;4.760;2023-03-04T09:37:37;9.00;73.40
20672;DHT22;10495;50.922;4.760;2023-03-04T09:40:04;8.60;74.70
20672;DHT22;10495;50.922;4.760;2023-03-04T09:42:36;8.40;74.70
20672;DHT22;10495;50.922;4.760;2023-03-04T09:45:04;8.30;75.00
20672;DHT22;10495;50.922;4.760;2023-03-04T09:47:33;8.10;75.10
20672;DHT22;10495;50.922;4.760;2023-03-04T09:50:09;8.10;76.30
20672;DHT22;10495;50.922;4.760;2023-03-04T09:55:41;8.00;76.30
20672;DHT22;10495;50.922;4.760;2023-03-04T09:58:43;8.10;75.40
20672;DHT22;10495;50.922;4.760;2023-03-04T10:01:25;8.10;75.00
20672;DHT22;10495;50.922;4.760;2023-03-04T10:04:02;7.80;76.70
20672;DHT22;10495;50.922;4.760;2023-03-04T10:06:30;7.70;77.50
20672;DHT22;10495;50.922;4.760;2023-03-04T10:09:05;7.70;77.60
20672;DHT22;10495;50.922;4.760;2023-03-04T10:11:42;7.90;77.80
20672;DHT22;10495;50.922;4.760;2023-03-04T10:17:06;7.70;78.40
20672;DHT22;10495;50.922;4.760;2023-03-04T10:22:40;7.90;78.30
20672;DHT22;10495;50.922;4.760;2023-03-04T10:25:32;8.10;78.10
20672;DHT22;10495;50.922;4.760;2023-03-04T10:28:00;8.10;78.60
20672;DHT22;10495;50.922;4.760;2023-03-04T10:33:29;8.60;77.80
20672;DHT22;10495;50.922;4.760;2023-03-04T10:38:54;8.50;77.00
20672;DHT22;10495;50.922;4.760;2023-03-04T10:41:24;8.50;77.30
20672;DHT22;10495;50.922;4.760;2023-03-04T10:46:25;8.50;76.70
20672;DHT22;10495;50.922;4.760;2023-03-04T10:48:52;8.60;77.20
20672;DHT22;10495;50.922;4.760;2023-03-04T10:51:23;8.80;76.90
20672;DHT22;10495;50.922;4.760;2023-03-04T10:53:54;8.80;76.60
20672;DHT22;10495;50.922;4.760;2023-03-04T10:56:51;8.60;77.20
20672;DHT22;10495;50.922;4.760;2023-03-04T11:02:44;8.90;76.80
20672;DHT22;10495;50.922;4.760;2023-03-04T11:07:27;8.90;77.10
20672;DHT22;10495;50.922;4.760;2023-03-04T11:09:53;9.20;76.70
20672;DHT22;10495;50.922;4.760;2023-03-04T11:12:21;9.30;76.40
20672;DHT22;10495;50.922;4.760;2023-03-04T11:14:56;9.40;76.50
20672;DHT22;10495;50.922;4.760;2023-03-04T11:17:24;9.60;75.60
20672;DHT22;10495;50.922;4.760;2023-03-04T11:22:58;9.50;74.60
20672;DHT22;10495;50.922;4.760;2023-03-04T11:25:28;9.50;74.60
20672;DHT22;10495;50.922;4.760;2023-03-04T11:27:59;9.50;74.10
20672;DHT22;10495;50.922;4.760;2023-03-04T11:30:42;9.80;74.90
20672;DHT22;10495;50.922;4.760;2023-03-04T11:33:16;10.10;74.50
20672;DHT22;10495;50.922;4.760;2023-03-04T11:35:56;10.20;72.60
20672;DHT22;10495;50.922;4.760;2023-03-04T11:38:40;10.40;71.90
20672;DHT22;10495;50.922;4.760;2023-03-04T11:41:18;10.50;72.40
20672;DHT22;10495;50.922;4.760;2023-03-04T11:43:46;10.60;71.30
20672;DHT22;10495;50.922;4.760;2023-03-04T11:49:08;10.20;70.00
20672;DHT22;10495;50.922;4.760;2023-03-04T12:00:02;10.60;71.50
20672;DHT22;10495;50.922;4.760;2023-03-04T12:08:30;10.90;69.30
20672;DHT22;10495;50.922;4.760;2023-03-04T12:11:09;10.70;69.40
20672;DHT22;10495;50.922;4.760;2023-03-04T12:19:26;10.50;68.30
20672;DHT22;10495;50.922;4.760;2023-03-04T12:41:07;9.60;69.60
20672;DHT22;10495;50.922;4.760;2023-03-04T12:43:48;9.60;70.10
20672;DHT22;10495;50.922;4.760;2023-03-04T12:46:17;9.80;69.60
20672;DHT22;10495;50.922;4.760;2023-03-04T12:49:17;9.40;69.80
20672;DHT22;10495;50.922;4.760;2023-03-04T12:54:31;9.30;71.10
20672;DHT22;10495;50.922;4.760;2023-03-04T12:57:08;9.40;71.50
20672;DHT22;10495;50.922;4.760;2023-03-04T12:59:38;9.20;72.00
20672;DHT22;10495;50.922;4.760;2023-03-04T13:10:33;9.00;73.50
20672;DHT22;10495;50.922;4.760;2023-03-04T13:13:00;9.30;73.60
20672;DHT22;10495;50.922;4.760;2023-03-04T13:15:35;9.60;73.80
20672;DHT22;10495;50.922;4.760;2023-03-04T13:18:34;9.90;72.60
20672;DHT22;10495;50.922;4.760;2023-03-04T13:23:38;10.30;72.60
20672;DHT22;10495;50.922;4.760;2023-03-04T13:28:43;10.40;72.60
20672;DHT22;10495;50.922;4.760;2023-03-04T13:36:05;10.80;71.70
20672;DHT22;10495;50.922;4.760;2023-03-04T13:38:36;10.70;70.30
20672;DHT22;10495;50.922;4.760;2023-03-04T13:43:46;10.50;69.90
20672;DHT22;10495;50.922;4.760;2023-03-04T13:54:12;10.40;71.40
20672;DHT22;10495;50.922;4.760;2023-03-04T13:56:42;10.40;71.60
20672;DHT22;10495;50.922;4.760;2023-03-04T13:59:13;10.30;71.90
20672;DHT22;10495;50.922;4.760;2023-03-04T14:04:21;10.30;72.60
20672;DHT22;10495;50.922;4.760;2023-03-04T14:06:51;10.30;72.90
20672;DHT22;10495;50.922;4.760;2023-03-04T14:09:23;10.50;72.30
20672;DHT22;10495;50.922;4.760;2023-03-04T14:11:50;10.50;72.50
20672;DHT22;10495;50.922;4.760;2023-03-04T14:14:23;10.30;72.70
20672;DHT22;10495;50.922;4.760;2023-03-04T14:16:52;10.40;72.40
20672;DHT22;10495;50.922;4.760;2023-03-04T14:19:35;10.40;72.70
20672;DHT22;10495;50.922;4.760;2023-03-04T14:22:22;10.30;72.50
20672;DHT22;10495;50.922;4.760;2023-03-04T14:25:06;10.10;72.30
20672;DHT22;10495;50.922;4.760;2023-03-04T14:27:35;10.10;73.50
20672;DHT22;10495;50.922;4.760;2023-03-04T14:30:05;10.10;73.30
20672;DHT22;10495;50.922;4.760;2023-03-04T14:32:31;9.80;74.20
20672;DHT22;10495;50.922;4.760;2023-03-04T14:35:02;9.90;74.60
20672;DHT22;10495;50.922;4.760;2023-03-04T14:38:02;10.00;74.90
20672;DHT22;10495;50.922;4.760;2023-03-04T14:40:34;10.20;74.20
20672;DHT22;10495;50.922;4.760;2023-03-04T14:43:12;10.30;74.50
20672;DHT22;10495;50.922;4.760;2023-03-04T14:45:40;10.20;74.50
20672;DHT22;10495;50.922;4.760;2023-03-04T14:48:07;10.00;74.80
20672;DHT22;10495;50.922;4.760;2023-03-04T14:50:33;10.00;75.20
20672;DHT22;10495;50.922;4.760;2023-03-04T14:53:16;10.10;75.40
20672;DHT22;10495;50.922;4.760;2023-03-04T14:58:23;10.20;75.30
20672;DHT22;10495;50.922;4.760;2023-03-04T15:01:15;10.20;75.20
20672;DHT22;10495;50.922;4.760;2023-03-04T15:04:06;10.20;75.20
20672;DHT22;10495;50.922;4.760;2023-03-04T15:06:37;10.20;74.90
20672;DHT22;10495;50.922;4.760;2023-03-04T15:09:06;10.30;74.90
20672;DHT22;10495;50.922;4.760;2023-03-04T15:17:32;10.40;74.90
20672;DHT22;10495;50.922;4.760;2023-03-04T15:22:31;10.40;74.70
20672;DHT22;10495;50.922;4.760;2023-03-04T15:24:57;10.30;75.20
20672;DHT22;10495;50.922;4.760;2023-03-04T15:27:24;10.20;75.70
20672;DHT22;10495;50.922;4.760;2023-03-04T15:29:54;10.20;75.90
20672;DHT22;10495;50.922;4.760;2023-03-04T15:32:24;10.20;75.90
20672;DHT22;10495;50.922;4.760;2023-03-04T15:34:50;10.30;76.10
20672;DHT22;10495;50.922;4.760;2023-03-04T15:37:21;10.20;76.40
20672;DHT22;10495;50.922;4.760;2023-03-04T15:39:47;10.30;76.50
20672;DHT22;10495;50.922;4.760;2023-03-04T15:42:13;10.30;76.70
20672;DHT22;10495;50.922;4.760;2023-03-04T15:44:39;10.40;76.40
20672;DHT22;10495;50.922;4.760;2023-03-04T15:47:05;10.30;76.10
20672;DHT22;10495;50.922;4.760;2023-03-04T15:49:33;10.30;76.30
20672;DHT22;10495;50.922;4.760;2023-03-04T15:52:01;10.30;76.30
20672;DHT22;10495;50.922;4.760;2023-03-04T15:54:27;10.30;76.30
20672;DHT22;10495;50.922;4.760;2023-03-04T15:56:53;10.40;76.30
20672;DHT22;10495;50.922;4.760;2023-03-04T15:59:22;10.30;76.50
20672;DHT22;10495;50.922;4.760;2023-03-04T16:01:48;10.20;76.70
20672;DHT22;10495;50.922;4.760;2023-03-04T16:04:14;10.00;77.60
20672;DHT22;10495;50.922;4.760;2023-03-04T16:06:42;10.20;76.70
20672;DHT22;10495;50.922;4.760;2023-03-04T16:09:12;10.10;76.80
20672;DHT22;10495;50.922;4.760;2023-03-04T16:11:42;10.20;76.50
20672;DHT22;10495;50.922;4.760;2023-03-04T16:14:10;10.00;77.30
20672;DHT22;10495;50.922;4.760;2023-03-04T16:16:37;10.00;77.20
20672;DHT22;10495;50.922;4.760;2023-03-04T16:19:03;10.00;77.40
20672;DHT22;10495;50.922;4.760;2023-03-04T16:21:28;10.10;76.90
20672;DHT22;10495;50.922;4.760;2023-03-04T16:23:54;10.00;77.10
20672;DHT22;10495;50.922;4.760;2023-03-04T16:26:21;10.10;77.10
20672;DHT22;10495;50.922;4.760;2023-03-04T16:28:48;10.10;77.30
20672;DHT22;10495;50.922;4.760;2023-03-04T16:31:14;10.10;76.70
20672;DHT22;10495;50.922;4.760;2023-03-04T16:33:40;9.80;77.50
20672;DHT22;10495;50.922;4.760;2023-03-04T16:36:19;9.70;78.40
20672;DHT22;10495;50.922;4.760;2023-03-04T16:38:46;9.70;78.60
20672;DHT22;10495;50.922;4.760;2023-03-04T16:41:14;9.70;78.50
20672;DHT22;10495;50.922;4.760;2023-03-04T16:43:41;9.70;78.90
20672;DHT22;10495;50.922;4.760;2023-03-04T16:46:09;9.80;78.70
20672;DHT22;10495;50.922;4.760;2023-03-04T16:48:37;9.90;78.70
20672;DHT22;10495;50.922;4.760;2023-03-04T16:51:13;9.70;79.20
20672;DHT22;10495;50.922;4.760;2023-03-04T16:53:39;9.60;79.20
20672;DHT22;10495;50.922;4.760;2023-03-04T16:56:11;9.50;79.40
20672;DHT22;10495;50.922;4.760;2023-03-04T16:58:37;9.60;79.40
20672;DHT22;10495;50.922;4.760;2023-03-04T17:01:03;9.60;79.30
20672;DHT22;10495;50.922;4.760;2023-03-04T17:03:29;9.80;79.00
20672;DHT22;10495;50.922;4.760;2023-03-04T17:05:55;9.80;78.80
20672;DHT22;10495;50.922;4.760;2023-03-04T17:08:21;9.70;79.00
20672;DHT22;10495;50.922;4.760;2023-03-04T17:10:46;9.70;79.60
20672;DHT22;10495;50.922;4.760;2023-03-04T17:13:13;9.60;79.40
20672;DHT22;10495;50.922;4.760;2023-03-04T17:15:39;9.50;79.50
20672;DHT22;10495;50.922;4.760;2023-03-04T17:18:07;9.70;79.20
20672;DHT22;10495;50.922;4.760;2023-03-04T17:20:33;9.60;79.00
20672;DHT22;10495;50.922;4.760;2023-03-04T17:22:59;9.50;79.20
20672;DHT22;10495;50.922;4.760;2023-03-04T17:25:24;9.50;79.20
20672;DHT22;10495;50.922;4.760;2023-03-04T17:27:50;9.50;79.30
20672;DHT22;10495;50.922;4.760;2023-03-04T17:30:16;9.50;79.50
20672;DHT22;10495;50.922;4.760;2023-03-04T17:32:41;9.60;79.30
20672;DHT22;10495;50.922;4.760;2023-03-04T17:35:08;9.50;79.30
20672;DHT22;10495;50.922;4.760;2023-03-04T17:37:34;9.60;79.10
20672;DHT22;10495;50.922;4.760;2023-03-04T17:40:05;9.40;79.70
20672;DHT22;10495;50.922;4.760;2023-03-04T17:42:31;9.30;79.60
20672;DHT22;10495;50.922;4.760;2023-03-04T17:44:56;9.30;79.70
20672;DHT22;10495;50.922;4.760;2023-03-04T17:47:22;9.40;79.70